EIKN/NOC METAR and TAF weather

Enter ICAO airport designator
Station Type Date Time Source
EIKN METAR 2022/09/28 18:00 UTC NOAA

EIKN 281800Z 34007KT 9999 FEW023 10/07 Q1007 NOSIG


Station Type Date Time Source
EIKN Decoded METAR 2022/09/28 18:00 UTC NOAA

Connaught, Ireland (EIKN) 53-54-37N 008-49-05W
Sep 28, 2022 - 02:00 PM EDT / 2022.09.28 1800 UTC
Wind: from the NNW (340 degrees) at 8 MPH (7 KT):0
Visibility: greater than 7 mile(s):0
Sky conditions: mostly clear
Temperature: 50 F (10 C)
Dew Point: 44 F (7 C)
Relative Humidity: 81%
Pressure (altimeter): 29.74 in. Hg (1007 hPa)
ob: EIKN 281800Z 34007KT 9999 FEW023 10/07 Q1007 NOSIG
cycle: 18

Station Type Date Time Source
EIKN TAF 2022/09/28 18:11 UTC NOAA

TAF EIKN 281700Z 2818/2918 34009KT 9999 SCT015 PROB40 2901/2908 2000 BR BKN003

Example: see airport list